createdAt,value
2023-05-21T00:01:17.268Z,99094.00
2023-05-21T00:03:46.786Z,99094.00
2023-05-21T00:06:15.562Z,99094.00
2023-05-21T00:08:46.097Z,99091.44
2023-05-21T00:11:14.139Z,99091.53
2023-05-21T00:13:42.351Z,99082.06
2023-05-21T00:16:11.228Z,99077.06
2023-05-21T00:18:40.214Z,99078.81
2023-05-21T00:21:08.318Z,99078.81
2023-05-21T00:23:37.584Z,99067.72
2023-05-21T00:26:07.159Z,99073.78
2023-05-21T00:28:35.186Z,99066.91
2023-05-21T00:31:03.262Z,99061.75
2023-05-21T00:33:31.335Z,99060.13
2023-05-21T00:36:00.116Z,99065.28
2023-05-21T00:38:28.737Z,99059.28
2023-05-21T00:40:57.019Z,99055.91
2023-05-21T00:43:26.516Z,99046.44
2023-05-21T00:45:56.248Z,99058.50
2023-05-21T00:48:25.223Z,99052.53
2023-05-21T00:50:53.978Z,99046.56
2023-05-21T00:53:22.124Z,99042.25
2023-05-21T00:55:51.869Z,99048.19
2023-05-21T00:58:20.303Z,99040.63
2023-05-21T01:00:49.872Z,99046.56
2023-05-21T01:03:19.121Z,99041.41
2023-05-21T01:05:48.762Z,99038.03
2023-05-21T01:08:17.948Z,99040.47
2023-05-21T01:10:45.966Z,99046.56
2023-05-21T01:13:14.969Z,99035.47
2023-05-21T01:15:44.270Z,99034.66
2023-05-21T01:18:16.053Z,99029.53
2023-05-21T01:20:48.202Z,99023.53
2023-05-21T01:23:18.970Z,99028.84
2023-05-21T01:25:48.148Z,99030.47
2023-05-21T01:28:16.254Z,99029.53
2023-05-21T01:30:45.051Z,99027.88
2023-05-21T01:33:20.234Z,99015.81
2023-05-21T01:35:55.545Z,99012.44
2023-05-21T01:38:31.008Z,99017.59
2023-05-21T01:41:04.024Z,99012.44
2023-05-21T01:43:36.262Z,99006.47
2023-05-21T01:46:05.460Z,99015.03
2023-05-21T01:48:35.875Z,99004.72
2023-05-21T01:51:06.360Z,99008.94
2023-05-21T01:53:35.791Z,99003.78
2023-05-21T01:56:03.841Z,99009.06
2023-05-21T01:58:32.188Z,99003.78
2023-05-21T02:01:00.784Z,99004.59
2023-05-21T02:03:30.959Z,99000.38
2023-05-21T02:05:59.410Z,99003.78
2023-05-21T02:08:28.138Z,99006.38
2023-05-21T02:10:57.806Z,99002.97
2023-05-21T02:13:26.925Z,99002.97
2023-05-21T02:15:56.259Z,99003.78
2023-05-21T02:18:26.237Z,99002.03
2023-05-21T02:20:54.319Z,98999.44
2023-05-21T02:23:22.357Z,99002.03
2023-05-21T02:25:50.661Z,99001.22
2023-05-21T02:28:21.222Z,99004.59
2023-05-21T02:30:49.291Z,99003.78
2023-05-21T02:33:17.685Z,99002.03
2023-05-21T02:35:46.290Z,99002.97
2023-05-21T02:38:19.397Z,98991.88
2023-05-21T02:40:47.946Z,98997.00
2023-05-21T02:43:16.466Z,98997.81
2023-05-21T02:45:47.149Z,98997.94
2023-05-21T02:48:15.627Z,98996.19
2023-05-21T02:50:43.919Z,98995.38
2023-05-21T02:53:12.236Z,98990.38
2023-05-21T02:55:40.805Z,98995.38
2023-05-21T02:58:08.938Z,98998.91
2023-05-21T03:00:37.015Z,98990.38
2023-05-21T03:03:06.509Z,98998.09
2023-05-21T03:05:34.718Z,98991.31
2023-05-21T03:08:03.834Z,98994.72
2023-05-21T03:10:31.974Z,98993.88
2023-05-21T03:13:00.237Z,98987.00
2023-05-21T03:15:33.197Z,98984.53
2023-05-21T03:18:01.671Z,98972.50
2023-05-21T03:20:32.007Z,98984.53
2023-05-21T03:23:00.401Z,98972.66
2023-05-21T03:25:28.390Z,98973.44
2023-05-21T03:27:56.859Z,98979.53
2023-05-21T03:30:46.308Z,98971.00
2023-05-21T03:33:34.089Z,98978.88
2023-05-21T03:36:09.030Z,98978.88
2023-05-21T03:38:38.995Z,98978.03
2023-05-21T03:41:09.013Z,98980.47
2023-05-21T03:43:37.784Z,98981.44
2023-05-21T03:46:06.054Z,98973.72
2023-05-21T03:48:52.623Z,98978.88
2023-05-21T03:51:25.568Z,98972.09
2023-05-21T03:53:53.595Z,98981.44
2023-05-21T03:56:23.011Z,98981.44
2023-05-21T03:58:51.058Z,98988.19
2023-05-21T04:01:19.458Z,98983.03
2023-05-21T04:03:49.761Z,98982.09
2023-05-21T04:06:18.974Z,98982.94
2023-05-21T04:08:48.434Z,98981.16
2023-05-21T04:11:16.761Z,98988.09
2023-05-21T04:13:44.874Z,98978.59
2023-05-21T04:16:14.513Z,98988.88
2023-05-21T04:18:45.569Z,98986.31
2023-05-21T04:21:15.111Z,98985.50
2023-05-21T04:23:43.244Z,98989.81
2023-05-21T04:26:22.752Z,98993.22
2023-05-21T04:28:51.051Z,98994.84
2023-05-21T04:31:19.192Z,98994.84
2023-05-21T04:33:47.384Z,98995.66
2023-05-21T04:36:17.186Z,98998.25
2023-05-21T04:38:46.022Z,98994.84
2023-05-21T04:41:14.892Z,98994.84
2023-05-21T04:43:44.885Z,98988.88
2023-05-21T04:46:15.008Z,98991.47
2023-05-21T04:48:43.139Z,98996.47
2023-05-21T04:51:11.826Z,98992.16
2023-05-21T04:53:41.070Z,98989.56
2023-05-21T04:56:09.740Z,98992.16
2023-05-21T04:58:40.452Z,98992.00
2023-05-21T05:01:09.957Z,98990.22
2023-05-21T05:03:38.101Z,98990.22
2023-05-21T05:06:07.715Z,98983.31
2023-05-21T05:08:36.235Z,98986.72
2023-05-21T05:11:05.273Z,98987.53
2023-05-21T05:13:33.690Z,98982.22
2023-05-21T05:16:01.789Z,98990.78
2023-05-21T05:18:31.933Z,98985.50
2023-05-21T05:21:00.002Z,98988.88
2023-05-21T05:23:28.078Z,98980.19
2023-05-21T05:25:56.118Z,98983.44
2023-05-21T05:28:24.293Z,98994.56
2023-05-21T05:30:52.509Z,98991.03
2023-05-21T05:33:24.973Z,98992.66
2023-05-21T05:35:55.468Z,98990.75
2023-05-21T05:38:23.552Z,98980.47
2023-05-21T05:40:51.603Z,98982.09
2023-05-21T05:43:19.635Z,98991.31
2023-05-21T05:45:48.408Z,98985.19
2023-05-21T05:48:16.708Z,98983.44
2023-05-21T05:50:46.358Z,98985.03
2023-05-21T05:53:17.302Z,98985.72
2023-05-21T05:55:45.322Z,98984.78
2023-05-21T05:58:13.362Z,98989.78
2023-05-21T06:01:09.691Z,98986.38
2023-05-21T06:03:37.809Z,98984.50
2023-05-21T06:06:13.419Z,98991.28
2023-05-21T06:08:42.877Z,98996.97
2023-05-21T06:11:11.336Z,98994.28
2023-05-21T06:13:40.418Z,98999.28
2023-05-21T06:16:09.928Z,99004.16
2023-05-21T06:18:38.369Z,98998.88
2023-05-21T06:21:06.543Z,99001.28
2023-05-21T06:23:36.639Z,98998.56
2023-05-21T06:26:06.467Z,99003.56
2023-05-21T06:28:34.863Z,98998.31
2023-05-21T06:31:03.066Z,98999.91
2023-05-21T06:33:33.258Z,99003.19
2023-05-21T06:36:02.041Z,98993.69
2023-05-21T06:38:30.253Z,98994.38
2023-05-21T06:40:58.389Z,98998.56
2023-05-21T06:43:44.637Z,98994.22
2023-05-21T06:46:39.266Z,98995.03
2023-05-21T06:49:09.582Z,99001.66
2023-05-21T06:51:37.949Z,98994.75
2023-05-21T06:54:06.822Z,98998.00
2023-05-21T06:56:36.928Z,99002.06
2023-05-21T06:59:06.336Z,99002.75
2023-05-21T07:01:34.483Z,98997.59
2023-05-21T07:04:03.345Z,99009.34
2023-05-21T07:06:33.083Z,99013.56
2023-05-21T07:09:01.311Z,99014.38
2023-05-21T07:11:31.233Z,99008.25
2023-05-21T07:14:01.588Z,99017.63
2023-05-21T07:16:32.084Z,99011.53
2023-05-21T07:19:01.188Z,99002.84
2023-05-21T07:21:29.774Z,99008.66
2023-05-21T07:23:58.573Z,99020.44
2023-05-21T07:26:27.072Z,99016.91
2023-05-21T07:28:55.559Z,99019.34
2023-05-21T07:31:25.097Z,99020.00
2023-05-21T07:33:55.713Z,99011.19
2023-05-21T07:36:29.518Z,99013.50
2023-05-21T07:38:57.658Z,99010.78
2023-05-21T07:41:25.914Z,99007.91
2023-05-21T07:43:54.713Z,99006.66
2023-05-21T07:46:23.821Z,99011.38
2023-05-21T07:48:57.068Z,99014.50
2023-05-21T07:51:27.589Z,99010.81
2023-05-21T07:53:56.184Z,99008.78
2023-05-21T07:56:32.723Z,99009.28
2023-05-21T07:59:01.816Z,99014.97
2023-05-21T08:01:30.769Z,99013.91
2023-05-21T08:04:05.649Z,99018.63
2023-05-21T08:06:37.446Z,99012.38
2023-05-21T08:09:06.769Z,99014.53
2023-05-21T08:11:35.633Z,99012.47
2023-05-21T08:14:04.385Z,99006.88
2023-05-21T08:16:32.861Z,99014.16
2023-05-21T08:19:02.285Z,99012.13
2023-05-21T08:21:30.696Z,99010.88
2023-05-21T08:24:00.245Z,99008.00
2023-05-21T08:26:29.017Z,99006.88
2023-05-21T08:28:57.946Z,99010.94
2023-05-21T08:31:26.227Z,99011.31
2023-05-21T08:33:56.359Z,99010.88
2023-05-21T08:36:37.605Z,99014.63
2023-05-21T08:39:13.665Z,99012.41
2023-05-21T08:41:49.449Z,99016.19
2023-05-21T08:44:22.581Z,99014.75
2023-05-21T08:46:52.029Z,99016.78
2023-05-21T08:49:26.389Z,99015.38
2023-05-21T08:51:59.658Z,99012.34
2023-05-21T08:54:28.854Z,99009.34
2023-05-21T08:56:59.219Z,99013.25
2023-05-21T08:59:28.288Z,99015.34
2023-05-21T09:01:57.632Z,99014.09
2023-05-21T09:04:34.199Z,99016.41
2023-05-21T09:07:04.429Z,99014.31
2023-05-21T09:09:57.371Z,99016.72
2023-05-21T09:12:26.756Z,99015.78
2023-05-21T09:14:57.796Z,99012.25
2023-05-21T09:17:29.845Z,99013.19
2023-05-21T09:20:14.519Z,99012.25
2023-05-21T09:22:50.464Z,99018.88
2023-05-21T09:25:22.090Z,99010.66
2023-05-21T09:27:50.642Z,99012.81
2023-05-21T09:30:24.069Z,99013.28
2023-05-21T09:32:58.073Z,99011.06
2023-05-21T09:35:26.449Z,99014.00
2023-05-21T09:37:57.343Z,99002.09
2023-05-21T09:40:25.906Z,99007.00
2023-05-21T09:42:56.387Z,99005.81
2023-05-21T09:45:26.310Z,99004.25
2023-05-21T09:47:57.542Z,99008.81
2023-05-21T09:50:27.856Z,99001.13
2023-05-21T09:52:58.154Z,98994.34
2023-05-21T09:55:27.644Z,98997.16
2023-05-21T09:57:55.811Z,98987.94
2023-05-21T10:00:27.250Z,98993.31
2023-05-21T10:02:57.292Z,98984.72
2023-05-21T10:05:29.272Z,98988.09
2023-05-21T10:08:02.919Z,98985.38
2023-05-21T10:10:32.943Z,98986.13
2023-05-21T10:13:06.674Z,98973.28
2023-05-21T10:15:40.159Z,98976.97
2023-05-21T10:18:09.855Z,98981.81
2023-05-21T10:20:39.389Z,98974.63
2023-05-21T10:23:09.200Z,98974.59
2023-05-21T10:25:38.014Z,98968.91
2023-05-21T10:28:07.843Z,98970.19
2023-05-21T10:30:38.131Z,98962.25
2023-05-21T10:33:07.120Z,98963.22
2023-05-21T10:35:35.756Z,98967.78
2023-05-21T10:38:05.778Z,98958.91
2023-05-21T10:40:36.140Z,98963.94
2023-05-21T10:43:46.486Z,98959.91
2023-05-21T10:46:46.315Z,98960.63
2023-05-21T10:49:49.552Z,98963.09
2023-05-21T10:52:33.708Z,98958.13
2023-05-21T10:55:21.177Z,98956.69
2023-05-21T10:58:46.480Z,98954.59
2023-05-21T11:01:16.397Z,98959.28
2023-05-21T11:03:44.643Z,98952.34
2023-05-21T11:06:12.921Z,98949.59
2023-05-21T11:08:48.924Z,98952.84
2023-05-21T11:11:44.780Z,98953.00
2023-05-21T11:14:39.531Z,98948.81
2023-05-21T11:17:14.292Z,98942.66
2023-05-21T11:19:43.855Z,98950.09
2023-05-21T11:22:24.021Z,98947.19
2023-05-21T11:24:53.262Z,98951.09
2023-05-21T11:27:34.242Z,98947.81
2023-05-21T11:30:08.542Z,98943.78
2023-05-21T11:32:40.731Z,98942.50
2023-05-21T11:35:09.754Z,98941.69
2023-05-21T11:37:41.443Z,98946.03
2023-05-21T11:40:30.462Z,98936.66
2023-05-21T11:42:58.609Z,98935.81
2023-05-21T11:45:32.186Z,98941.69
2023-05-21T11:48:01.183Z,98942.50
2023-05-21T11:50:33.484Z,98941.69
2023-05-21T11:53:01.843Z,98946.88
2023-05-21T11:55:29.925Z,98943.31
2023-05-21T11:57:59.418Z,98946.69
2023-05-21T12:00:27.581Z,98942.97
2023-05-21T12:03:00.039Z,98948.78
2023-05-21T12:05:28.149Z,98947.81
2023-05-21T12:07:56.476Z,98955.09
2023-05-21T12:10:24.759Z,98944.28
2023-05-21T12:12:56.973Z,98948.75
2023-05-21T12:15:27.919Z,98948.28
2023-05-21T12:17:57.658Z,98944.25
2023-05-21T12:20:29.080Z,98944.53
2023-05-21T12:22:59.902Z,98941.31
2023-05-21T12:25:28.469Z,98943.25
2023-05-21T12:27:58.496Z,98940.81
2023-05-21T12:30:27.524Z,98935.97
2023-05-21T12:33:01.844Z,98936.28
2023-05-21T12:35:32.515Z,98938.06
2023-05-21T12:38:03.218Z,98936.59
2023-05-21T12:40:38.680Z,98934.16
2023-05-21T12:43:08.196Z,98932.56
2023-05-21T12:45:39.208Z,98930.63
2023-05-21T12:48:07.910Z,98935.00
2023-05-21T12:50:41.290Z,98927.41
2023-05-21T12:53:11.273Z,98926.56
2023-05-21T12:55:40.544Z,98930.13
2023-05-21T12:58:09.330Z,98926.75
2023-05-21T13:00:38.217Z,98936.13
2023-05-21T13:03:07.269Z,98935.16
2023-05-21T13:05:41.060Z,98935.78
2023-05-21T13:08:10.463Z,98931.41
2023-05-21T13:10:38.920Z,98929.66
2023-05-21T13:13:07.273Z,98931.91
2023-05-21T13:15:35.506Z,98932.72
2023-05-21T13:18:04.040Z,98921.41
2023-05-21T13:20:32.268Z,98925.63
2023-05-21T13:23:03.939Z,98926.41
2023-05-21T13:25:33.699Z,98931.75
2023-05-21T13:28:05.011Z,98929.34
2023-05-21T13:30:34.108Z,98931.91
2023-05-21T13:33:02.284Z,98935.31
2023-05-21T13:35:32.107Z,98937.25
2023-05-21T13:38:01.615Z,98926.13
2023-05-21T13:40:29.695Z,98936.47
2023-05-21T13:42:57.862Z,98926.75
2023-05-21T13:45:28.978Z,98941.13
2023-05-21T13:47:57.358Z,98937.59
2023-05-21T13:50:26.068Z,98936.47
2023-05-21T13:52:54.157Z,98941.47
2023-05-21T13:55:23.833Z,98937.75
2023-05-21T13:57:51.918Z,98948.13
2023-05-21T14:00:20.117Z,98937.59
2023-05-21T14:02:48.437Z,98944.25
2023-05-21T14:05:16.818Z,98941.50
2023-05-21T14:07:47.368Z,98942.28
2023-05-21T14:10:15.658Z,98943.91
2023-05-21T14:12:47.049Z,98933.72
2023-05-21T14:15:15.169Z,98935.47
2023-05-21T14:17:43.275Z,98934.84
2023-05-21T14:20:12.951Z,98930.63
2023-05-21T14:22:41.115Z,98925.78
2023-05-21T14:25:10.222Z,98921.75
2023-05-21T14:27:38.732Z,98917.69
2023-05-21T14:30:10.230Z,98924.94
2023-05-21T14:32:38.285Z,98925.44
2023-05-21T14:35:07.380Z,98921.41
2023-05-21T14:37:35.562Z,98924.31
2023-05-21T14:40:05.343Z,98917.69
2023-05-21T14:42:33.435Z,98918.78
2023-05-21T14:45:17.566Z,98918.28
2023-05-21T14:47:48.731Z,98916.69
2023-05-21T14:50:18.888Z,98916.03
2023-05-21T14:52:47.452Z,98911.81
2023-05-21T14:55:16.886Z,98913.78
2023-05-21T14:57:45.588Z,98906.97
2023-05-21T15:00:14.750Z,98904.56
2023-05-21T15:02:43.037Z,98909.88
2023-05-21T15:05:14.866Z,98903.25
2023-05-21T15:07:43.040Z,98906.81
2023-05-21T15:10:11.807Z,98899.88
2023-05-21T15:12:41.308Z,98901.63
2023-05-21T15:15:10.487Z,98900.84
2023-05-21T15:17:38.562Z,98895.66
2023-05-21T15:20:09.330Z,98892.13
2023-05-21T15:22:38.930Z,98887.75
2023-05-21T15:25:08.090Z,98890.16
2023-05-21T15:27:36.160Z,98885.00
2023-05-21T15:30:04.894Z,98884.03
2023-05-21T15:32:32.953Z,98886.63
2023-05-21T15:35:01.098Z,98878.69
2023-05-21T15:37:31.967Z,98877.06
2023-05-21T15:40:01.600Z,98879.66
2023-05-21T15:42:31.528Z,98882.25
2023-05-21T15:44:59.965Z,98878.69
2023-05-21T15:47:28.179Z,98873.53
2023-05-21T15:49:56.360Z,98877.75
2023-05-21T15:52:25.619Z,98881.13
2023-05-21T15:54:54.108Z,98879.50
2023-05-21T15:57:23.659Z,98875.31
2023-05-21T15:59:52.505Z,98883.06
2023-05-21T16:02:20.854Z,98876.28
2023-05-21T16:04:49.834Z,98882.25
2023-05-21T16:07:17.986Z,98887.25
2023-05-21T16:09:46.176Z,98888.25
2023-05-21T16:12:14.570Z,98894.06
2023-05-21T16:14:44.379Z,98890.66
2023-05-21T16:17:12.573Z,98887.41
2023-05-21T16:19:40.768Z,98893.56
2023-05-21T16:22:10.665Z,98896.28
2023-05-21T16:24:39.071Z,98895.66
2023-05-21T16:27:07.194Z,98894.03
2023-05-21T16:29:35.248Z,98891.44
2023-05-21T16:32:05.399Z,98894.03
2023-05-21T16:34:34.355Z,98895.81
2023-05-21T16:37:02.450Z,98897.59
2023-05-21T16:39:30.688Z,98895.97
2023-05-21T16:41:59.547Z,98895.97
2023-05-21T16:44:27.795Z,98895.97
2023-05-21T16:46:55.967Z,98894.19
2023-05-21T16:49:25.519Z,98893.41
2023-05-21T16:51:53.629Z,98902.13
2023-05-21T16:54:21.876Z,98897.09
2023-05-21T16:56:50.167Z,98902.44
2023-05-21T16:59:18.186Z,98895.63
2023-05-21T17:01:46.463Z,98897.41
2023-05-21T17:04:14.585Z,98901.78
2023-05-21T17:06:44.038Z,98901.78
2023-05-21T17:09:12.240Z,98905.31
2023-05-21T17:11:43.511Z,98905.31
2023-05-21T17:14:13.512Z,98905.31
2023-05-21T17:16:45.938Z,98915.66
2023-05-21T17:19:14.051Z,98895.97
2023-05-21T17:21:43.504Z,98901.94
2023-05-21T17:24:11.953Z,98906.94
2023-05-21T17:26:40.038Z,98916.47
2023-05-21T17:29:08.201Z,98905.31
2023-05-21T17:31:36.539Z,98909.69
2023-05-21T17:34:06.686Z,98902.91
2023-05-21T17:36:35.970Z,98904.69
2023-05-21T17:39:05.587Z,98908.22
2023-05-21T17:41:33.693Z,98905.00
2023-05-21T17:44:01.834Z,98914.34
2023-05-21T17:46:30.017Z,98914.50
2023-05-21T17:48:58.394Z,98913.72
2023-05-21T17:51:26.548Z,98915.47
2023-05-21T17:53:54.549Z,98912.09
2023-05-21T17:56:23.990Z,98919.03
2023-05-21T17:58:52.620Z,98923.38
2023-05-21T18:01:21.395Z,98921.75
2023-05-21T18:03:49.565Z,98922.75
2023-05-21T18:06:17.817Z,98919.34
2023-05-21T18:08:45.895Z,98926.28
2023-05-21T18:11:13.953Z,98925.63
2023-05-21T18:13:43.334Z,98921.28
2023-05-21T18:16:11.436Z,98927.38
2023-05-21T18:18:39.515Z,98921.41
2023-05-21T18:21:07.690Z,98916.41
2023-05-21T18:23:35.882Z,98922.38
2023-05-21T18:26:04.104Z,98925.91
2023-05-21T18:28:33.379Z,98941.41
2023-05-21T18:31:04.321Z,98937.22
2023-05-21T18:33:32.833Z,98921.06
2023-05-21T18:36:00.920Z,98931.41
2023-05-21T18:38:28.939Z,98930.59
2023-05-21T18:40:57.008Z,98930.72
2023-05-21T18:43:25.074Z,98934.31
2023-05-21T18:45:53.100Z,98936.88
2023-05-21T18:48:22.454Z,98919.75
2023-05-21T18:50:50.646Z,98930.09
2023-05-21T18:53:18.683Z,98932.00
2023-05-21T18:55:46.701Z,98939.13
2023-05-21T18:58:14.763Z,98940.09
2023-05-21T19:00:43.355Z,98929.91
2023-05-21T19:03:12.542Z,98930.84
2023-05-21T19:05:42.058Z,98940.56
2023-05-21T19:08:10.304Z,98939.88
2023-05-21T19:10:39.163Z,98946.00
2023-05-21T19:13:07.509Z,98942.63
2023-05-21T19:15:35.567Z,98937.78
2023-05-21T19:18:03.979Z,98935.19
2023-05-21T19:20:32.085Z,98941.31
2023-05-21T19:23:01.607Z,98938.91
2023-05-21T19:25:31.374Z,98935.47
2023-05-21T19:28:00.695Z,98940.97
2023-05-21T19:30:28.740Z,98943.69
2023-05-21T19:32:56.954Z,98941.13
2023-05-21T19:35:25.061Z,98950.81
2023-05-21T19:37:54.515Z,98948.34
2023-05-21T19:40:23.938Z,98959.84
2023-05-21T19:42:52.026Z,98969.34
2023-05-21T19:45:21.589Z,98967.72
2023-05-21T19:47:49.734Z,98968.03
2023-05-21T19:50:17.844Z,98967.38
2023-05-21T19:52:45.940Z,98968.34
2023-05-21T19:55:14.391Z,98975.41
2023-05-21T19:57:43.820Z,98970.41
2023-05-21T20:00:14.447Z,98976.69
2023-05-21T20:02:42.583Z,98973.44
2023-05-21T20:05:11.175Z,98971.97
2023-05-21T20:07:39.482Z,98973.09
2023-05-21T20:10:09.598Z,98976.63
2023-05-21T20:12:37.757Z,98982.09
2023-05-21T20:15:08.885Z,98978.84
2023-05-21T20:17:39.346Z,98979.16
2023-05-21T20:20:10.281Z,98974.13
2023-05-21T20:22:38.415Z,98974.28
2023-05-21T20:25:08.772Z,98981.38
2023-05-21T20:27:38.557Z,98976.50
2023-05-21T20:30:10.026Z,98987.78
2023-05-21T20:32:38.207Z,98979.38
2023-05-21T20:35:09.783Z,98978.69
2023-05-21T20:37:38.140Z,98977.22
2023-05-21T20:40:07.804Z,98975.63
2023-05-21T20:42:36.489Z,98980.94
2023-05-21T20:45:05.165Z,98978.63
2023-05-21T20:47:34.669Z,98971.84
2023-05-21T20:50:03.683Z,98972.16
2023-05-21T20:52:32.111Z,98967.94
2023-05-21T20:55:00.438Z,98972.47
2023-05-21T20:57:29.490Z,98973.41
2023-05-21T20:59:57.898Z,98971.78
2023-05-21T21:02:26.895Z,98966.94
2023-05-21T21:04:57.747Z,98966.94
2023-05-21T21:07:25.761Z,98970.59
2023-05-21T21:09:53.839Z,98975.91
2023-05-21T21:12:26.473Z,98978.50
2023-05-21T21:14:54.831Z,98979.59
2023-05-21T21:17:23.170Z,98972.00
2023-05-21T21:19:51.341Z,98980.72
2023-05-21T21:22:20.865Z,98977.63
2023-05-21T21:24:49.020Z,98992.28
2023-05-21T21:27:17.056Z,98985.53
2023-05-21T21:29:46.277Z,98984.84
2023-05-21T21:32:14.289Z,98987.72
2023-05-21T21:34:42.301Z,98983.53
2023-05-21T21:37:10.653Z,98979.31
2023-05-21T21:39:40.981Z,98979.47
2023-05-21T21:42:09.174Z,98979.63
2023-05-21T21:44:39.138Z,98978.00
2023-05-21T21:47:07.482Z,98976.50
2023-05-21T21:49:35.550Z,98978.28
2023-05-21T21:52:03.779Z,98980.19
2023-05-21T21:54:31.934Z,98976.97
2023-05-21T21:57:01.388Z,98973.59
2023-05-21T21:59:29.629Z,98978.06
2023-05-21T22:01:57.872Z,98970.47
2023-05-21T22:04:26.141Z,98974.94
2023-05-21T22:06:54.602Z,98969.78
2023-05-21T22:09:23.032Z,98973.34
2023-05-21T22:11:51.849Z,98967.38
2023-05-21T22:14:21.229Z,98974.47
2023-05-21T22:16:49.435Z,98965.09
2023-05-21T22:19:20.366Z,98972.97
2023-05-21T22:21:49.062Z,98972.16
2023-05-21T22:24:30.909Z,98968.91
2023-05-21T22:27:00.391Z,98968.13
2023-05-21T22:29:29.844Z,98970.00
2023-05-21T22:31:58.004Z,98974.38
2023-05-21T22:34:26.149Z,98968.53
2023-05-21T22:36:54.252Z,98964.31
2023-05-21T22:39:22.403Z,98963.53
2023-05-21T22:41:50.511Z,98968.00
2023-05-21T22:44:18.601Z,98961.09
2023-05-21T22:46:49.262Z,98962.06
2023-05-21T22:49:17.522Z,98958.66
2023-05-21T22:51:46.256Z,98955.41
2023-05-21T22:54:14.557Z,98959.78
2023-05-21T22:56:43.175Z,98955.53
2023-05-21T22:59:11.299Z,98958.25
2023-05-21T23:01:39.430Z,98958.25
2023-05-21T23:04:08.901Z,98961.00
2023-05-21T23:06:36.954Z,98950.81
2023-05-21T23:09:05.381Z,98954.34
2023-05-21T23:11:33.555Z,98959.50
2023-05-21T23:14:01.609Z,98961.41
2023-05-21T23:16:30.708Z,98965.75
2023-05-21T23:18:58.918Z,98960.75
2023-05-21T23:21:28.533Z,98961.69
2023-05-21T23:23:56.621Z,98960.91
2023-05-21T23:26:25.452Z,98959.41
2023-05-21T23:28:53.589Z,98957.00
2023-05-21T23:31:21.945Z,98956.31
2023-05-21T23:33:51.662Z,98959.84
2023-05-21T23:36:19.856Z,98958.22
2023-05-21T23:38:49.346Z,98960.97
2023-05-21T23:41:17.488Z,98969.63
2023-05-21T23:43:45.554Z,98967.22
2023-05-21T23:46:13.757Z,98969.91
2023-05-21T23:48:41.947Z,98970.88
2023-05-21T23:51:10.125Z,98964.09
2023-05-21T23:53:38.314Z,98971.81
2023-05-21T23:56:08.264Z,98969.25
2023-05-21T23:58:36.437Z,98967.63
